»·PEaware :: SWA572 KIDA-KDEN

SWA572 :: KIDA-KDEN

FLIGHT INFORMATION

Flight Status: Arrived
Operator:
Southwest Airlines
More flights by this operator :: More flights under this callsign
Pilot: Anonymous 8799 (8799)
Aircraft: BOEING 737-800
(B738)
More flights by this aircraft type
Origin: KIDA Idaho Falls Regl
United States
Destination: KDEN Denver Intl
United States
More flights between these airports :: More routes between these airports
Route: IDA GWEDO FRNCH3
File this flight plan on PilotEdge
Remarks:
Altitude:
(Current/Filed)
39,000ft
Speed:
(Current/Filed)
450kts
Departed: 15-Apr-18 10:43 AM
Arrived: 15-Apr-18 11:53 AM
Distance/Time
Traveled:
398nm/1:10
Distance/Time
To Go:
Arrived

Flight Plot

Page will automatically refresh every two minutes.

Flight plan parsing failed; only flown route is shown


Map Options




Map Legend


Flown Route
Filed Route
Departure Airport
Arrival Airport
Navaid (VOR, NDB)
Fix

Horizontal Profiles

Position Reports

Time Latitude Longitude Heading Altitude Ground
Speed
15-Apr-18 09:50 43.515094 -112.068670 141 4746ft 0kts
15-Apr-18 09:51 43.515094 -112.068670 141 4746ft 0kts
15-Apr-18 09:52 43.515094 -112.068670 141 4746ft 0kts
15-Apr-18 09:53 43.515094 -112.068670 141 4746ft 0kts
15-Apr-18 09:54 43.515094 -112.068670 141 4746ft 0kts
15-Apr-18 09:55 43.515094 -112.068670 141 4746ft 0kts
15-Apr-18 09:56 43.515094 -112.068670 141 4746ft 0kts
15-Apr-18 09:57 43.515094 -112.068670 141 4746ft 0kts
15-Apr-18 09:58 43.515094 -112.068670 141 4746ft 0kts
15-Apr-18 09:59 43.515094 -112.068670 141 4746ft 0kts
15-Apr-18 10:00 43.515094 -112.068670 141 4746ft 0kts
15-Apr-18 10:01 43.515094 -112.068670 141 4746ft 0kts
15-Apr-18 10:02 43.515094 -112.068670 141 4746ft 0kts
15-Apr-18 10:03 43.515094 -112.068670 141 4746ft 0kts
15-Apr-18 10:04 43.515094 -112.068670 141 4746ft 0kts
15-Apr-18 10:05 43.515094 -112.068670 141 4746ft 0kts
15-Apr-18 10:06 43.515094 -112.068670 141 4746ft 0kts
15-Apr-18 10:07 43.515094 -112.068670 141 4746ft 0kts
15-Apr-18 10:08 43.515094 -112.068670 141 4746ft 0kts
15-Apr-18 10:09 43.515094 -112.068670 141 4746ft 0kts
15-Apr-18 10:10 43.515094 -112.068670 141 4746ft 0kts
15-Apr-18 10:11 43.515094 -112.068670 141 4746ft 0kts
15-Apr-18 10:12 43.515094 -112.068670 141 4746ft 0kts
15-Apr-18 10:13 43.515094 -112.068670 141 4746ft 0kts
15-Apr-18 10:14 43.515094 -112.068670 141 4746ft 0kts
15-Apr-18 10:15 43.515094 -112.068670 141 4746ft 0kts
15-Apr-18 10:16 43.515094 -112.068670 141 4746ft 0kts
15-Apr-18 10:17 43.515094 -112.068670 141 4746ft 0kts
15-Apr-18 10:18 43.515094 -112.068670 141 4746ft 0kts
15-Apr-18 10:19 43.515094 -112.068670 141 4746ft 0kts
15-Apr-18 10:20 43.515094 -112.068670 141 4746ft 0kts
15-Apr-18 10:21 43.515094 -112.068670 141 4746ft 0kts
15-Apr-18 10:22 43.515094 -112.068670 141 4746ft 0kts
15-Apr-18 10:23 43.515094 -112.068670 141 4746ft 0kts
15-Apr-18 10:24 43.515094 -112.068670 141 4746ft 0kts
15-Apr-18 10:25 43.515094 -112.068670 141 4746ft 0kts
15-Apr-18 10:26 43.515094 -112.068670 141 4746ft 0kts
15-Apr-18 10:27 43.515275 -112.069198 86 4746ft 2kts
15-Apr-18 10:28 43.514974 -112.069807 38 4746ft 0kts
15-Apr-18 10:29 43.514965 -112.069817 39 4746ft 0kts
15-Apr-18 10:30 43.514965 -112.069817 39 4746ft 0kts
15-Apr-18 10:31 43.514965 -112.069817 39 4746ft 0kts
15-Apr-18 10:32 43.514965 -112.069817 39 4746ft 0kts
15-Apr-18 10:33 43.514973 -112.069809 39 4746ft 0kts
15-Apr-18 10:34 43.517257 -112.067276 37 4746ft 17kts
15-Apr-18 10:35 43.521015 -112.063431 12 4746ft 9kts
15-Apr-18 10:36 43.521146 -112.063434 348 4746ft 0kts
15-Apr-18 10:37 43.521146 -112.063434 348 4746ft 0kts
15-Apr-18 10:38 43.521146 -112.063434 348 4746ft 0kts
15-Apr-18 10:39 43.521146 -112.063434 348 4746ft 0kts
15-Apr-18 10:40 43.521456 -112.063702 316 4746ft 6kts
15-Apr-18 10:41 43.520567 -112.065674 218 4746ft 36kts
15-Apr-18 10:42 43.490341 -112.101031 214 5666ft 207kts
15-Apr-18 10:43 43.446715 -112.093969 134 7814ft 239kts
15-Apr-18 10:44 43.433451 -111.994781 95 9897ft 293kts
15-Apr-18 10:45 43.422827 -111.883348 126 11893ft 299kts
15-Apr-18 10:46 43.373895 -111.790146 132 13901ft 308kts
15-Apr-18 10:47 43.322404 -111.694549 133 15897ft 319kts
15-Apr-18 10:48 43.268817 -111.595319 133 17900ft 332kts
15-Apr-18 10:49 43.213400 -111.492984 134 19893ft 345kts
15-Apr-18 10:50 43.156413 -111.388077 135 21866ft 359kts
15-Apr-18 10:51 43.100200 -111.284879 136 23131ft 369kts
15-Apr-18 10:52 43.042775 -111.179652 136 23148ft 369kts
15-Apr-18 10:53 42.983821 -111.072037 135 23150ft 369kts
15-Apr-18 10:54 42.921734 -110.959287 135 24795ft 388kts
15-Apr-18 10:55 42.864098 -110.855031 134 26113ft 408kts
15-Apr-18 10:56 42.798279 -110.736061 134 27936ft 414kts
15-Apr-18 10:57 42.730157 -110.613407 134 29700ft 416kts
15-Apr-18 10:58 42.661105 -110.489639 135 31290ft 419kts
15-Apr-18 10:59 42.591276 -110.365041 135 32721ft 421kts
15-Apr-18 11:00 42.526002 -110.248793 136 33877ft 423kts
15-Apr-18 11:01 42.455909 -110.124383 136 35066ft 421kts
15-Apr-18 11:02 42.385777 -110.000464 136 36175ft 419kts
15-Apr-18 11:03 42.315764 -109.877349 136 37142ft 419kts
15-Apr-18 11:04 42.245722 -109.754733 136 38018ft 419kts
15-Apr-18 11:05 42.175332 -109.632049 136 38794ft 419kts
15-Apr-18 11:06 42.104754 -109.509574 136 39206ft 417kts
15-Apr-18 11:07 42.034387 -109.388023 136 39214ft 420kts
15-Apr-18 11:08 41.965279 -109.269272 136 39205ft 440kts
15-Apr-18 11:09 41.892829 -109.145073 136 39203ft 458kts
15-Apr-18 11:10 41.815037 -109.012314 134 39195ft 478kts
15-Apr-18 11:11 41.732738 -108.872416 134 39200ft 497kts
15-Apr-18 11:12 41.646447 -108.726395 133 39203ft 518kts
15-Apr-18 11:13 41.557264 -108.576152 133 39199ft 525kts
15-Apr-18 11:14 41.467802 -108.426180 133 39202ft 525kts
15-Apr-18 11:15 41.383815 -108.286000 134 39195ft 524kts
15-Apr-18 11:16 41.305789 -108.126277 120 39217ft 534kts
15-Apr-18 11:17 41.239782 -107.953283 120 39230ft 533kts
15-Apr-18 11:18 41.172257 -107.780789 121 39233ft 533kts
15-Apr-18 11:19 41.104718 -107.609971 121 39236ft 532kts
15-Apr-18 11:20 41.037334 -107.440799 121 39239ft 527kts
15-Apr-18 11:21 40.972801 -107.279639 121 39227ft 522kts
15-Apr-18 11:22 40.906248 -107.114112 121 39227ft 521kts
15-Apr-18 11:23 40.845073 -106.962992 121 39221ft 524kts
15-Apr-18 11:24 40.777671 -106.797585 120 39220ft 532kts
15-Apr-18 11:25 40.708053 -106.627676 120 39223ft 532kts
15-Apr-18 11:26 40.638308 -106.458510 120 39227ft 532kts
15-Apr-18 11:27 40.572032 -106.298521 120 38870ft 518kts
15-Apr-18 11:28 40.505122 -106.137589 120 36077ft 523kts
15-Apr-18 11:29 40.437822 -105.968520 108 33201ft 529kts
15-Apr-18 11:30 40.409666 -105.782043 100 30362ft 515kts
15-Apr-18 11:31 40.382321 -105.604481 101 27520ft 491kts
15-Apr-18 11:32 40.351215 -105.436137 117 24657ft 466kts
15-Apr-18 11:33 40.281845 -105.316920 133 21984ft 420kts
15-Apr-18 11:34 40.215054 -105.212366 133 19048ft 350kts
15-Apr-18 11:35 40.155026 -105.118920 132 16578ft 338kts
15-Apr-18 11:36 40.095062 -105.025765 131 15407ft 338kts
15-Apr-18 11:37 40.036581 -104.935112 130 14388ft 335kts
15-Apr-18 11:38 39.978059 -104.844517 129 13351ft 329kts
15-Apr-18 11:39 39.901833 -104.804828 183 12328ft 290kts
15-Apr-18 11:40 39.843386 -104.806361 183 11617ft 273kts
15-Apr-18 11:41 39.774506 -104.808346 183 10919ft 252kts
15-Apr-18 11:42 39.711505 -104.810092 183 10479ft 228kts
15-Apr-18 11:43 39.646610 -104.812238 182 8997ft 252kts
15-Apr-18 11:44 39.607759 -104.769171 88 9019ft 201kts
15-Apr-18 11:45 39.608848 -104.703046 48 8980ft 175kts
15-Apr-18 11:46 39.647441 -104.670418 28 7998ft 151kts
15-Apr-18 11:47 39.683367 -104.662489 2 8008ft 133kts
15-Apr-18 11:48 39.719911 -104.661999 2 7554ft 133kts
15-Apr-18 11:49 39.756151 -104.661527 3 6865ft 133kts
15-Apr-18 11:50 39.792478 -104.661050 3 6173ft 133kts
15-Apr-18 11:51 39.828737 -104.660575 4 5467ft 131kts
15-Apr-18 11:52 39.846813 -104.660446 353 5439ft 36kts
15-Apr-18 11:53 39.849357 -104.661879 328 5439ft 0kts
15-Apr-18 11:54 39.849357 -104.661879 328 5439ft 0kts
15-Apr-18 11:55 39.849357 -104.661879 328 5439ft 0kts
15-Apr-18 11:56 39.850900 -104.662386 359 5439ft 18kts
15-Apr-18 11:57 39.852736 -104.667087 285 5439ft 13kts
15-Apr-18 11:58 39.853354 -104.670001 358 5439ft 0kts
15-Apr-18 11:59 39.853354 -104.670001 358 5439ft 0kts
15-Apr-18 12:00 39.853354 -104.670001 358 5439ft 0kts
15-Apr-18 12:01 39.853354 -104.670001 358 5439ft 0kts
15-Apr-18 12:02 39.853354 -104.670001 358 5439ft 0kts

Navigation Log

Ident Type
Flight plan parsing failed, navigation log unavailable